createdAt,value
2023-03-12T00:01:30.397Z,8.40
2023-03-12T00:03:59.496Z,8.30
2023-03-12T00:06:29.027Z,8.20
2023-03-12T00:08:58.121Z,8.00
2023-03-12T00:11:26.782Z,8.10
2023-03-12T00:14:00.591Z,8.00
2023-03-12T00:16:29.782Z,7.80
2023-03-12T00:18:58.373Z,7.70
2023-03-12T00:21:27.663Z,7.70
2023-03-12T00:23:56.282Z,7.70
2023-03-12T00:26:27.021Z,7.60
2023-03-12T00:28:57.372Z,7.70
2023-03-12T00:31:28.557Z,7.60
2023-03-12T00:33:57.576Z,7.40
2023-03-12T00:36:29.656Z,7.30
2023-03-12T00:38:59.233Z,6.90
2023-03-12T00:41:31.247Z,6.50
2023-03-12T00:44:01.458Z,6.50
2023-03-12T00:46:30.076Z,6.40
2023-03-12T00:48:59.515Z,6.30
2023-03-12T00:51:28.340Z,6.40
2023-03-12T00:53:57.241Z,6.50
2023-03-12T00:56:26.790Z,6.60
2023-03-12T00:58:55.938Z,6.60
2023-03-12T01:01:27.617Z,6.60
2023-03-12T01:04:00.265Z,6.60
2023-03-12T01:06:28.642Z,6.70
2023-03-12T01:08:57.468Z,6.70
2023-03-12T01:11:26.524Z,6.60
2023-03-12T01:13:55.653Z,6.70
2023-03-12T01:16:30.658Z,6.50
2023-03-12T01:19:00.575Z,6.40
2023-03-12T01:21:31.393Z,6.40
2023-03-12T01:24:00.329Z,6.40
2023-03-12T01:26:28.506Z,6.70
2023-03-12T01:28:57.149Z,6.90
2023-03-12T01:31:29.070Z,7.10
2023-03-12T01:33:58.160Z,7.10
2023-03-12T01:36:29.384Z,7.20
2023-03-12T01:38:59.963Z,7.10
2023-03-12T01:41:33.096Z,7.10
2023-03-12T01:44:03.769Z,7.10
2023-03-12T01:46:36.383Z,7.10
2023-03-12T01:49:12.346Z,7.30
2023-03-12T01:51:44.529Z,7.30
2023-03-12T01:54:19.272Z,7.20
2023-03-12T01:56:48.926Z,7.00
2023-03-12T01:59:22.578Z,6.90
2023-03-12T02:01:52.982Z,7.10
2023-03-12T02:04:25.073Z,7.10
2023-03-12T02:06:59.191Z,6.90
2023-03-12T02:09:28.013Z,7.00
2023-03-12T02:11:56.160Z,7.00
2023-03-12T02:14:24.324Z,7.20
2023-03-12T02:16:55.388Z,7.30
2023-03-12T02:19:33.198Z,7.50
2023-03-12T02:22:02.627Z,7.60
2023-03-12T02:24:39.423Z,7.60
2023-03-12T02:27:13.464Z,7.90
2023-03-12T02:29:44.473Z,7.90
2023-03-12T02:32:18.900Z,8.00
2023-03-12T02:34:50.656Z,7.90
2023-03-12T02:37:21.000Z,8.10
2023-03-12T02:39:55.945Z,8.30
2023-03-12T02:42:27.640Z,8.40
2023-03-12T02:44:55.732Z,8.50
2023-03-12T02:47:24.221Z,8.50
2023-03-12T02:49:53.966Z,8.60
2023-03-12T02:52:22.616Z,8.40
2023-03-12T02:54:50.849Z,8.40
2023-03-12T02:57:19.404Z,8.30
2023-03-12T02:59:49.050Z,8.40
2023-03-12T03:02:17.329Z,8.00
2023-03-12T03:04:45.503Z,8.10
2023-03-12T03:07:16.108Z,8.00
2023-03-12T03:09:44.304Z,8.20
2023-03-12T03:12:12.388Z,8.40
2023-03-12T03:14:42.233Z,8.50
2023-03-12T03:17:11.944Z,8.60
2023-03-12T03:19:40.502Z,8.30
2023-03-12T03:22:08.506Z,8.50
2023-03-12T03:24:38.481Z,8.70
2023-03-12T03:27:07.040Z,8.80
2023-03-12T03:29:36.374Z,8.70
2023-03-12T03:32:05.344Z,8.70
2023-03-12T03:34:37.632Z,8.90
2023-03-12T03:37:09.362Z,8.80
2023-03-12T03:39:38.464Z,8.40
2023-03-12T03:42:06.661Z,8.60
2023-03-12T03:44:35.775Z,8.70
2023-03-12T03:47:04.149Z,8.80
2023-03-12T03:49:33.035Z,8.70
2023-03-12T03:52:03.244Z,8.70
2023-03-12T03:54:36.188Z,8.70
2023-03-12T03:57:07.318Z,8.80
2023-03-12T03:59:35.724Z,8.90
2023-03-12T04:02:05.056Z,8.60
2023-03-12T04:04:37.049Z,8.10
2023-03-12T04:07:07.459Z,7.90
2023-03-12T04:09:36.900Z,8.00
2023-03-12T04:12:05.312Z,8.10
2023-03-12T04:14:41.481Z,8.10
2023-03-12T04:17:11.134Z,8.20
2023-03-12T04:19:41.359Z,8.30
2023-03-12T04:22:13.119Z,8.70
2023-03-12T04:24:41.119Z,8.80
2023-03-12T04:27:09.696Z,8.60
2023-03-12T04:29:39.132Z,8.30
2023-03-12T04:32:08.108Z,8.20
2023-03-12T04:34:37.096Z,8.00
2023-03-12T04:37:05.548Z,8.20
2023-03-12T04:39:34.872Z,8.30
2023-03-12T04:42:06.832Z,8.40
2023-03-12T04:44:35.454Z,8.60
2023-03-12T04:47:04.424Z,8.60
2023-03-12T04:49:37.017Z,8.40
2023-03-12T04:52:05.376Z,8.40
2023-03-12T04:54:35.328Z,8.50
2023-03-12T04:57:04.751Z,7.90
2023-03-12T04:59:32.853Z,7.70
2023-03-12T05:02:01.597Z,7.20
2023-03-12T05:04:33.713Z,7.00
2023-03-12T05:07:03.156Z,7.10
2023-03-12T05:09:32.126Z,6.90
2023-03-12T05:12:01.692Z,6.70
2023-03-12T05:14:29.806Z,6.70
2023-03-12T05:17:00.119Z,6.60
2023-03-12T05:19:29.109Z,6.60
2023-03-12T05:21:58.122Z,6.60
2023-03-12T05:24:27.793Z,6.30
2023-03-12T05:26:56.310Z,6.40
2023-03-12T05:29:27.065Z,6.40
2023-03-12T05:31:57.726Z,5.80
2023-03-12T05:34:29.815Z,5.70
2023-03-12T05:36:59.269Z,5.60
2023-03-12T05:39:29.362Z,5.80
2023-03-12T05:42:02.367Z,5.90
2023-03-12T05:44:34.739Z,6.20
2023-03-12T05:47:03.194Z,6.50
2023-03-12T05:49:32.288Z,6.60
2023-03-12T05:52:03.124Z,6.80
2023-03-12T05:54:32.650Z,6.80
2023-03-12T05:57:00.726Z,6.70
2023-03-12T05:59:30.140Z,6.70
2023-03-12T06:02:00.010Z,6.30
2023-03-12T06:04:29.922Z,6.30
2023-03-12T06:06:58.867Z,6.20
2023-03-12T06:09:28.493Z,6.40
2023-03-12T06:11:58.118Z,6.60
2023-03-12T06:14:26.563Z,6.90
2023-03-12T06:16:59.281Z,6.80
2023-03-12T06:19:27.685Z,7.00
2023-03-12T06:21:55.785Z,7.00
2023-03-12T06:24:24.382Z,6.70
2023-03-12T06:27:00.892Z,6.60
2023-03-12T06:29:29.529Z,6.60
2023-03-12T06:31:59.027Z,6.30
2023-03-12T06:34:30.903Z,6.20
2023-03-12T06:36:59.411Z,6.30
2023-03-12T06:39:30.320Z,6.20
2023-03-12T06:41:58.701Z,6.30
2023-03-12T06:44:26.840Z,6.30
2023-03-12T06:46:55.691Z,6.60
2023-03-12T06:49:26.622Z,7.00
2023-03-12T06:51:57.549Z,7.10
2023-03-12T06:54:25.739Z,7.10
2023-03-12T06:56:53.909Z,6.70
2023-03-12T06:59:24.187Z,6.70
2023-03-12T07:01:53.224Z,6.70
2023-03-12T07:04:21.923Z,6.60
2023-03-12T07:06:51.396Z,6.80
2023-03-12T07:09:20.129Z,6.90
2023-03-12T07:11:48.173Z,6.90
2023-03-12T07:14:16.947Z,7.20
2023-03-12T07:16:44.944Z,7.50
2023-03-12T07:19:13.533Z,7.50
2023-03-12T07:21:41.642Z,7.10
2023-03-12T07:24:11.017Z,7.30
2023-03-12T07:26:40.119Z,6.90
2023-03-12T07:29:08.114Z,6.80
2023-03-12T07:31:36.578Z,6.80
2023-03-12T07:34:06.773Z,6.40
2023-03-12T07:36:35.301Z,6.30
2023-03-12T07:39:04.492Z,6.50
2023-03-12T07:41:39.761Z,6.60
2023-03-12T07:44:08.145Z,6.60
2023-03-12T07:46:36.805Z,6.40
2023-03-12T07:49:05.738Z,6.60
2023-03-12T07:51:33.784Z,6.60
2023-03-12T07:54:01.921Z,6.60
2023-03-12T07:56:31.709Z,6.60
2023-03-12T07:59:01.553Z,6.70
2023-03-12T08:01:32.133Z,6.50
2023-03-12T08:04:01.420Z,6.60
2023-03-12T08:06:29.931Z,6.30
2023-03-12T08:08:58.380Z,6.20
2023-03-12T08:11:29.494Z,6.20
2023-03-12T08:13:59.137Z,6.00
2023-03-12T08:16:29.367Z,6.20
2023-03-12T08:18:57.498Z,6.10
2023-03-12T08:21:25.615Z,6.10
2023-03-12T08:23:54.154Z,6.00
2023-03-12T08:26:23.052Z,6.20
2023-03-12T08:28:51.143Z,6.40
2023-03-12T08:31:19.768Z,6.50
2023-03-12T08:33:49.679Z,6.40
2023-03-12T08:36:17.887Z,6.40
2023-03-12T08:38:45.962Z,6.30
2023-03-12T08:41:14.905Z,6.30
2023-03-12T08:43:42.985Z,6.40
2023-03-12T08:46:12.519Z,6.40
2023-03-12T08:48:41.727Z,6.10
2023-03-12T08:51:11.205Z,6.10
2023-03-12T08:53:39.612Z,6.10
2023-03-12T08:56:10.625Z,6.10
2023-03-12T08:58:39.172Z,6.40
2023-03-12T09:01:10.973Z,6.60
2023-03-12T09:03:41.052Z,6.60
2023-03-12T09:06:16.046Z,6.60
2023-03-12T09:08:45.732Z,6.50
2023-03-12T09:11:15.295Z,6.00
2023-03-12T09:14:33.437Z,6.10
2023-03-12T09:16:33.141Z,6.00
2023-03-12T09:19:01.829Z,6.40
2023-03-12T09:21:31.412Z,6.40
2023-03-12T09:24:00.018Z,6.30
2023-03-12T09:26:30.164Z,6.20
2023-03-12T09:28:59.234Z,6.40
2023-03-12T09:31:27.456Z,6.70
2023-03-12T09:33:57.168Z,6.50
2023-03-12T09:36:26.183Z,6.40
2023-03-12T09:38:56.414Z,6.60
2023-03-12T09:41:28.195Z,6.80
2023-03-12T09:44:01.432Z,6.80
2023-03-12T09:46:38.438Z,6.90
2023-03-12T09:49:12.513Z,7.00
2023-03-12T09:51:47.220Z,7.30
2023-03-12T09:54:26.832Z,7.50
2023-03-12T09:57:00.229Z,7.20
2023-03-12T09:59:30.617Z,7.10
2023-03-12T10:02:04.220Z,6.90
2023-03-12T10:04:58.593Z,7.00
2023-03-12T10:07:35.793Z,7.10
2023-03-12T10:10:19.066Z,7.20
2023-03-12T10:13:04.251Z,6.90
2023-03-12T10:15:45.544Z,7.20
2023-03-12T10:18:27.908Z,7.10
2023-03-12T10:21:09.662Z,7.10
2023-03-12T10:23:49.997Z,7.00
2023-03-12T10:26:26.176Z,6.90
2023-03-12T10:28:59.937Z,6.90
2023-03-12T10:31:34.213Z,6.90
2023-03-12T10:34:07.004Z,7.10
2023-03-12T10:36:41.176Z,7.20
2023-03-12T10:39:15.848Z,7.40
2023-03-12T10:41:47.820Z,7.50
2023-03-12T10:44:22.016Z,7.60
2023-03-12T10:47:05.866Z,7.60
2023-03-12T10:49:36.197Z,7.50
2023-03-12T10:52:09.139Z,7.60
2023-03-12T10:54:40.628Z,7.70
2023-03-12T10:57:10.274Z,7.80
2023-03-12T10:59:42.867Z,7.70
2023-03-12T11:02:31.858Z,7.80
2023-03-12T11:05:02.289Z,7.60
2023-03-12T11:07:32.953Z,7.60
2023-03-12T11:10:17.779Z,7.80
2023-03-12T11:13:24.694Z,7.90
2023-03-12T11:15:53.882Z,7.60
2023-03-12T11:18:28.130Z,7.60
2023-03-12T11:20:58.221Z,7.50
2023-03-12T11:23:31.244Z,7.50
2023-03-12T11:26:03.073Z,7.80
2023-03-12T11:28:39.202Z,7.80
2023-03-12T11:31:12.144Z,7.80
2023-03-12T11:33:41.205Z,7.80
2023-03-12T11:36:24.180Z,8.00
2023-03-12T11:38:59.251Z,8.20
2023-03-12T11:41:39.633Z,8.20
2023-03-12T11:44:24.233Z,8.00
2023-03-12T11:47:06.249Z,8.10
2023-03-12T11:49:53.118Z,7.90
2023-03-12T11:52:35.359Z,8.10
2023-03-12T11:55:21.823Z,8.00
2023-03-12T11:58:02.976Z,8.20
2023-03-12T12:00:40.104Z,8.20
2023-03-12T12:03:36.749Z,8.20
2023-03-12T12:06:38.256Z,8.10
2023-03-12T12:09:25.394Z,8.10
2023-03-12T12:15:15.685Z,8.00
2023-03-12T12:17:58.520Z,8.30
2023-03-12T12:20:37.597Z,8.50
2023-03-12T12:23:17.423Z,8.50
2023-03-12T12:26:01.070Z,8.60
2023-03-12T12:29:07.124Z,8.60
2023-03-12T12:31:41.568Z,8.70
2023-03-12T12:34:29.453Z,8.80
2023-03-12T12:37:16.018Z,8.70
2023-03-12T12:39:49.847Z,8.70
2023-03-12T12:42:24.555Z,8.70
2023-03-12T12:44:56.401Z,8.80
2023-03-12T12:47:35.266Z,8.80
2023-03-12T12:50:06.112Z,8.90
2023-03-12T12:52:34.956Z,8.90
2023-03-12T12:55:13.627Z,9.10
2023-03-12T12:57:46.376Z,9.20
2023-03-12T13:00:29.916Z,9.30
2023-03-12T13:02:59.125Z,9.40
2023-03-12T13:05:42.325Z,9.30
2023-03-12T13:08:34.750Z,9.40
2023-03-12T13:11:17.625Z,9.20
2023-03-12T13:13:51.000Z,9.30
2023-03-12T13:16:36.974Z,9.30
2023-03-12T13:22:19.392Z,9.40
2023-03-12T13:24:54.747Z,9.40
2023-03-12T13:27:27.270Z,9.50
2023-03-12T13:29:57.260Z,9.60
2023-03-12T13:32:57.478Z,9.80
2023-03-12T13:35:38.095Z,10.00
2023-03-12T13:38:13.506Z,10.10
2023-03-12T13:41:08.349Z,10.00
2023-03-12T13:43:52.329Z,10.20
2023-03-12T13:46:42.371Z,10.20
2023-03-12T13:49:14.798Z,10.30
2023-03-12T13:52:02.535Z,10.40
2023-03-12T13:54:35.308Z,10.30
2023-03-12T13:57:11.556Z,10.40
2023-03-12T13:59:46.430Z,10.60
2023-03-12T14:02:24.789Z,10.40
2023-03-12T14:05:15.987Z,10.60
2023-03-12T14:08:17.219Z,10.80
2023-03-12T14:11:02.088Z,10.70
2023-03-12T14:13:58.246Z,10.70
2023-03-12T14:16:43.352Z,10.70
2023-03-12T14:19:38.564Z,10.80
2023-03-12T14:22:08.762Z,10.80
2023-03-12T14:24:40.283Z,10.80
2023-03-12T14:27:15.627Z,11.00
2023-03-12T14:29:50.378Z,10.80
2023-03-12T14:32:24.787Z,10.80
2023-03-12T14:34:59.369Z,10.70
2023-03-12T14:37:33.295Z,10.90
2023-03-12T14:40:08.613Z,11.10
2023-03-12T14:42:38.327Z,11.00
2023-03-12T14:45:14.159Z,11.00
2023-03-12T14:47:43.400Z,10.90
2023-03-12T14:50:20.061Z,10.90
2023-03-12T14:52:48.376Z,11.00
2023-03-12T14:55:18.401Z,11.10
2023-03-12T14:58:03.630Z,10.90
2023-03-12T15:00:32.048Z,11.00
2023-03-12T15:03:04.526Z,10.90
2023-03-12T15:05:34.185Z,10.90
2023-03-12T15:08:04.380Z,10.80
2023-03-12T15:10:34.110Z,10.80
2023-03-12T15:13:05.344Z,11.00
2023-03-12T15:15:41.485Z,11.00
2023-03-12T15:18:15.102Z,11.20
2023-03-12T15:20:44.242Z,11.30
2023-03-12T15:23:15.284Z,11.20
2023-03-12T15:25:44.691Z,11.10
2023-03-12T15:28:29.626Z,11.30
2023-03-12T15:31:21.912Z,11.30
2023-03-12T15:34:02.559Z,11.20
2023-03-12T15:36:32.241Z,11.10
2023-03-12T15:39:06.206Z,11.10
2023-03-12T15:41:44.012Z,11.10
2023-03-12T15:44:46.963Z,11.20
2023-03-12T15:47:18.271Z,11.20
2023-03-12T15:49:53.131Z,11.20
2023-03-12T15:52:31.368Z,11.40
2023-03-12T15:55:23.496Z,11.50
2023-03-12T15:57:54.530Z,11.40
2023-03-12T16:03:17.450Z,11.20
2023-03-12T16:05:47.844Z,11.20
2023-03-12T16:08:20.574Z,11.20
2023-03-12T16:10:52.069Z,11.30
2023-03-12T16:13:23.435Z,11.30
2023-03-12T16:15:53.686Z,11.30
2023-03-12T16:18:23.570Z,11.40
2023-03-12T16:20:53.805Z,11.40
2023-03-12T16:23:23.063Z,11.50
2023-03-12T16:25:54.334Z,11.50
2023-03-12T16:28:25.241Z,11.30
2023-03-12T16:30:55.229Z,11.40
2023-03-12T16:33:25.312Z,11.50
2023-03-12T16:35:53.913Z,11.60
2023-03-12T16:38:22.439Z,11.60
2023-03-12T16:40:52.689Z,11.50
2023-03-12T16:43:23.960Z,11.40
2023-03-12T16:45:56.795Z,11.30
2023-03-12T16:48:26.896Z,11.30
2023-03-12T16:50:57.809Z,11.20
2023-03-12T16:53:28.001Z,11.30
2023-03-12T16:55:58.680Z,11.40
2023-03-12T16:58:31.275Z,11.30
2023-03-12T17:01:00.901Z,11.20
2023-03-12T17:03:35.594Z,11.30
2023-03-12T17:06:04.492Z,11.30
2023-03-12T17:08:32.514Z,11.40
2023-03-12T17:11:01.675Z,11.40
2023-03-12T17:13:30.383Z,11.40
2023-03-12T17:16:00.090Z,11.30
2023-03-12T17:18:28.549Z,11.30
2023-03-12T17:20:56.990Z,11.30
2023-03-12T17:23:25.051Z,11.40
2023-03-12T17:25:53.217Z,11.40
2023-03-12T17:28:22.068Z,11.50
2023-03-12T17:30:50.187Z,11.30
2023-03-12T17:33:24.126Z,11.30
2023-03-12T17:35:59.545Z,11.30
2023-03-12T17:38:30.098Z,11.30
2023-03-12T17:40:59.432Z,11.20
2023-03-12T17:43:28.584Z,11.30
2023-03-12T17:45:59.061Z,11.40
2023-03-12T17:48:28.380Z,11.40
2023-03-12T17:50:58.569Z,11.40
2023-03-12T17:53:27.719Z,11.40
2023-03-12T17:55:55.723Z,11.30
2023-03-12T17:58:24.461Z,11.30
2023-03-12T18:00:53.504Z,11.20
2023-03-12T18:03:21.593Z,11.20
2023-03-12T18:05:52.426Z,11.10
2023-03-12T18:08:23.025Z,11.10
2023-03-12T18:10:51.473Z,11.20
2023-03-12T18:13:20.446Z,11.20
2023-03-12T18:15:53.722Z,11.20
2023-03-12T18:18:22.363Z,11.10
2023-03-12T18:20:51.786Z,11.10
2023-03-12T18:23:21.280Z,11.20
2023-03-12T18:25:49.483Z,11.00
2023-03-12T18:28:17.584Z,11.00
2023-03-12T18:30:47.281Z,11.10
2023-03-12T18:33:16.482Z,11.20
2023-03-12T18:35:45.103Z,11.00
2023-03-12T18:38:15.130Z,11.10
2023-03-12T18:40:43.836Z,11.10
2023-03-12T18:43:13.325Z,11.20
2023-03-12T18:45:45.751Z,11.30
2023-03-12T18:48:13.867Z,11.30
2023-03-12T18:50:43.479Z,11.20
2023-03-12T18:53:12.673Z,11.30
2023-03-12T18:55:44.920Z,11.40
2023-03-12T18:58:13.360Z,11.30
2023-03-12T19:00:41.340Z,11.30
2023-03-12T19:03:10.234Z,11.20
2023-03-12T19:05:38.573Z,11.10
2023-03-12T19:08:06.925Z,11.20
2023-03-12T19:10:34.956Z,11.10
2023-03-12T19:13:06.477Z,11.20
2023-03-12T19:15:37.284Z,11.10
2023-03-12T19:18:06.365Z,11.10
2023-03-12T19:20:34.451Z,10.90
2023-03-12T19:23:03.422Z,11.00
2023-03-12T19:25:32.017Z,10.90
2023-03-12T19:28:00.928Z,11.00
2023-03-12T19:30:32.999Z,10.90
2023-03-12T19:33:02.825Z,11.00
2023-03-12T19:35:30.914Z,11.00
2023-03-12T19:38:01.898Z,11.10
2023-03-12T19:40:30.044Z,11.10
2023-03-12T19:42:58.271Z,11.30
2023-03-12T19:45:26.275Z,11.20
2023-03-12T19:48:00.485Z,11.40
2023-03-12T19:50:28.944Z,11.30
2023-03-12T19:52:57.415Z,11.20
2023-03-12T19:55:25.417Z,11.40
2023-03-12T19:57:54.147Z,11.40
2023-03-12T20:00:23.613Z,11.30
2023-03-12T20:02:51.659Z,11.30
2023-03-12T20:05:21.796Z,11.50
2023-03-12T20:07:52.506Z,11.60
2023-03-12T20:10:20.618Z,11.40
2023-03-12T20:12:50.004Z,11.30
2023-03-12T20:15:19.032Z,11.20
2023-03-12T20:17:47.468Z,11.30
2023-03-12T20:20:18.827Z,11.40
2023-03-12T20:22:48.614Z,11.50
2023-03-12T20:25:16.845Z,11.40
2023-03-12T20:27:45.133Z,11.50
2023-03-12T20:30:15.319Z,11.60
2023-03-12T20:32:43.681Z,11.40
2023-03-12T20:35:11.709Z,11.50
2023-03-12T20:37:40.808Z,11.50
2023-03-12T20:40:11.810Z,11.70
2023-03-12T20:42:41.527Z,11.60
2023-03-12T20:45:10.183Z,11.40
2023-03-12T20:47:40.194Z,11.60
2023-03-12T20:50:10.622Z,11.80
2023-03-12T20:52:38.703Z,11.70
2023-03-12T20:55:07.401Z,11.60
2023-03-12T20:57:36.968Z,11.70
2023-03-12T21:00:06.380Z,11.60
2023-03-12T21:02:34.831Z,11.60
2023-03-12T21:05:03.391Z,11.50
2023-03-12T21:07:31.529Z,11.70
2023-03-12T21:09:59.949Z,11.50
2023-03-12T21:12:28.348Z,11.60
2023-03-12T21:15:05.857Z,11.90
2023-03-12T21:17:35.552Z,11.80
2023-03-12T21:20:09.901Z,11.90
2023-03-12T21:22:38.657Z,12.00
2023-03-12T21:25:07.956Z,11.90
2023-03-12T21:27:49.982Z,11.80
2023-03-12T21:30:21.081Z,12.00
2023-03-12T21:32:50.676Z,11.90
2023-03-12T21:35:19.886Z,12.10
2023-03-12T21:37:49.372Z,12.00
2023-03-12T21:40:18.064Z,11.90
2023-03-12T21:42:46.152Z,12.00
2023-03-12T21:45:17.233Z,12.00
2023-03-12T21:47:47.128Z,12.00
2023-03-12T21:50:15.524Z,11.90
2023-03-12T21:52:49.417Z,12.00
2023-03-12T21:55:18.522Z,11.90
2023-03-12T22:00:36.541Z,11.70
2023-03-12T22:03:05.901Z,11.80
2023-03-12T22:05:34.313Z,11.70
2023-03-12T22:08:02.289Z,11.90
2023-03-12T22:10:30.595Z,11.90
2023-03-12T22:12:58.575Z,11.90
2023-03-12T22:15:28.067Z,11.60
2023-03-12T22:17:56.937Z,11.70
2023-03-12T22:20:26.716Z,11.80
2023-03-12T22:22:54.681Z,11.90
2023-03-12T22:25:23.262Z,12.00
2023-03-12T22:27:51.408Z,11.90
2023-03-12T22:30:19.539Z,11.90
2023-03-12T22:32:48.654Z,11.90
2023-03-12T22:35:17.351Z,11.80
2023-03-12T22:37:46.816Z,11.80
2023-03-12T22:40:15.708Z,11.70
2023-03-12T22:42:52.576Z,11.90
2023-03-12T22:45:20.864Z,12.00
2023-03-12T22:47:49.833Z,12.00
2023-03-12T22:50:18.077Z,11.40
2023-03-12T22:52:47.863Z,11.50
2023-03-12T22:55:17.001Z,11.60
2023-03-12T22:57:45.286Z,11.70
2023-03-12T23:00:18.363Z,11.70
2023-03-12T23:02:48.943Z,11.90
2023-03-12T23:05:17.657Z,12.00
2023-03-12T23:07:47.692Z,12.00
2023-03-12T23:10:15.887Z,11.80
2023-03-12T23:12:43.888Z,11.70
2023-03-12T23:15:15.674Z,11.70
2023-03-12T23:17:45.157Z,11.80
2023-03-12T23:20:14.017Z,11.80
2023-03-12T23:22:42.007Z,11.90
2023-03-12T23:25:12.462Z,11.80
2023-03-12T23:27:40.431Z,12.10
2023-03-12T23:30:10.095Z,11.80
2023-03-12T23:32:38.607Z,12.00
2023-03-12T23:35:07.786Z,12.00
2023-03-12T23:37:36.185Z,12.10
2023-03-12T23:40:06.459Z,12.00
2023-03-12T23:42:36.701Z,11.70
2023-03-12T23:45:05.572Z,11.90
2023-03-12T23:47:34.000Z,11.90
2023-03-12T23:50:04.634Z,11.90
2023-03-12T23:52:32.804Z,11.80
2023-03-12T23:55:00.765Z,11.70
2023-03-12T23:57:30.977Z,11.80
